sensor_id;sensor_type;location;lat;lon;timestamp;P1;P2;P0
69350;PMS7003;57106;51.446;-2.606;2023-04-03T01:00:08;5;4;
69350;PMS7003;57106;51.446;-2.606;2023-04-03T02:27:34;3;3;
69350;PMS7003;57106;51.446;-2.606;2023-04-03T02:29:58;9;5;
69350;PMS7003;57106;51.446;-2.606;2023-04-03T03:18:36;6;5;
69350;PMS7003;57106;51.446;-2.606;2023-04-03T03:20:59;5;5;
69350;PMS7003;57106;51.446;-2.606;2023-04-03T03:23:23;6;6;
69350;PMS7003;57106;51.446;-2.606;2023-04-03T04:43:34;8;5;
69350;PMS7003;57106;51.446;-2.606;2023-04-03T04:46:00;5;5;
69350;PMS7003;57106;51.446;-2.606;2023-04-03T04:48:24;6;6;
69350;PMS7003;57106;51.446;-2.606;2023-04-03T04:50:50;5;5;
69350;PMS7003;57106;51.446;-2.606;2023-04-03T04:53:16;8;8;
69350;PMS7003;57106;51.446;-2.606;2023-04-03T04:55:42;4;4;
69350;PMS7003;57106;51.446;-2.606;2023-04-03T04:58:08;7;5;
69350;PMS7003;57106;51.446;-2.606;2023-04-03T05:00:33;8;6;
69350;PMS7003;57106;51.446;-2.606;2023-04-03T05:02:59;6;6;
69350;PMS7003;57106;51.446;-2.606;2023-04-03T05:05:25;6;6;
69350;PMS7003;57106;51.446;-2.606;2023-04-03T05:07:51;5;5;
69350;PMS7003;57106;51.446;-2.606;2023-04-03T05:10:17;6;6;
69350;PMS7003;57106;51.446;-2.606;2023-04-03T05:12:42;6;5;
69350;PMS7003;57106;51.446;-2.606;2023-04-03T05:27:18;5;5;
69350;PMS7003;57106;51.446;-2.606;2023-04-03T05:29:43;6;5;
69350;PMS7003;57106;51.446;-2.606;2023-04-03T05:32:19;8;8;
69350;PMS7003;57106;51.446;-2.606;2023-04-03T05:34:36;8;6;
69350;PMS7003;57106;51.446;-2.606;2023-04-03T05:54:00;4;4;
69350;PMS7003;57106;51.446;-2.606;2023-04-03T05:56:25;5;5;
69350;PMS7003;57106;51.446;-2.606;2023-04-03T05:58:53;8;8;
69350;PMS7003;57106;51.446;-2.606;2023-04-03T06:01:16;5;5;
69350;PMS7003;57106;51.446;-2.606;2023-04-03T06:03:42;5;5;
69350;PMS7003;57106;51.446;-2.606;2023-04-03T06:32:56;13;9;
69350;PMS7003;57106;51.446;-2.606;2023-04-03T06:35:17;9;6;
69350;PMS7003;57106;51.446;-2.606;2023-04-03T06:37:51;12;7;
69350;PMS7003;57106;51.446;-2.606;2023-04-03T06:40:10;5;5;
69350;PMS7003;57106;51.446;-2.606;2023-04-03T06:42:35;5;5;
69350;PMS7003;57106;51.446;-2.606;2023-04-03T06:49:58;9;6;
69350;PMS7003;57106;51.446;-2.606;2023-04-03T07:21:26;3;3;
69350;PMS7003;57106;51.446;-2.606;2023-04-03T07:33:35;11;5;
69350;PMS7003;57106;51.446;-2.606;2023-04-03T07:38:26;9;8;
69350;PMS7003;57106;51.446;-2.606;2023-04-03T07:40:53;6;6;
69350;PMS7003;57106;51.446;-2.606;2023-04-03T08:07:36;3;3;
69350;PMS7003;57106;51.446;-2.606;2023-04-03T08:10:00;4;3;
69350;PMS7003;57106;51.446;-2.606;2023-04-03T08:12:28;3;3;
69350;PMS7003;57106;51.446;-2.606;2023-04-03T08:27:06;3;3;
69350;PMS7003;57106;51.446;-2.606;2023-04-03T08:29:27;5;3;
69350;PMS7003;57106;51.446;-2.606;2023-04-03T08:31:53;3;3;
69350;PMS7003;57106;51.446;-2.606;2023-04-03T08:34:21;4;4;
69350;PMS7003;57106;51.446;-2.606;2023-04-03T08:36:43;3;3;
69350;PMS7003;57106;51.446;-2.606;2023-04-03T08:39:10;3;3;
69350;PMS7003;57106;51.446;-2.606;2023-04-03T08:41:36;7;4;
69350;PMS7003;57106;51.446;-2.606;2023-04-03T08:44:03;2;2;
69350;PMS7003;57106;51.446;-2.606;2023-04-03T08:46:30;3;3;
69350;PMS7003;57106;51.446;-2.606;2023-04-03T08:48:52;3;2;
69350;PMS7003;57106;51.446;-2.606;2023-04-03T10:43:06;7;6;
69350;PMS7003;57106;51.446;-2.606;2023-04-03T10:45:24;6;6;
69350;PMS7003;57106;51.446;-2.606;2023-04-03T10:47:51;8;7;
69350;PMS7003;57106;51.446;-2.606;2023-04-03T10:52:40;6;6;
69350;PMS7003;57106;51.446;-2.606;2023-04-03T10:55:07;7;7;
69350;PMS7003;57106;51.446;-2.606;2023-04-03T10:57:30;5;5;
69350;PMS7003;57106;51.446;-2.606;2023-04-03T10:59:56;9;8;
69350;PMS7003;57106;51.446;-2.606;2023-04-03T11:02:23;7;6;
69350;PMS7003;57106;51.446;-2.606;2023-04-03T11:04:48;9;8;
69350;PMS7003;57106;51.446;-2.606;2023-04-03T11:07:14;9;8;
69350;PMS7003;57106;51.446;-2.606;2023-04-03T11:09:39;8;8;
69350;PMS7003;57106;51.446;-2.606;2023-04-03T11:12:04;7;7;
69350;PMS7003;57106;51.446;-2.606;2023-04-03T11:14:30;8;7;
69350;PMS7003;57106;51.446;-2.606;2023-04-03T11:17:00;5;5;
69350;PMS7003;57106;51.446;-2.606;2023-04-03T11:19:20;5;5;
69350;PMS7003;57106;51.446;-2.606;2023-04-03T11:21:46;5;5;
69350;PMS7003;57106;51.446;-2.606;2023-04-03T11:24:13;6;6;
69350;PMS7003;57106;51.446;-2.606;2023-04-03T11:26:38;6;5;
69350;PMS7003;57106;51.446;-2.606;2023-04-03T11:29:03;5;5;
69350;PMS7003;57106;51.446;-2.606;2023-04-03T11:31:35;6;6;
69350;PMS7003;57106;51.446;-2.606;2023-04-03T11:33:55;6;6;
69350;PMS7003;57106;51.446;-2.606;2023-04-03T11:36:19;6;6;
69350;PMS7003;57106;51.446;-2.606;2023-04-03T11:38:45;8;7;
69350;PMS7003;57106;51.446;-2.606;2023-04-03T11:41:10;9;7;
69350;PMS7003;57106;51.446;-2.606;2023-04-03T11:43:39;8;8;
69350;PMS7003;57106;51.446;-2.606;2023-04-03T11:46:01;6;6;
69350;PMS7003;57106;51.446;-2.606;2023-04-03T11:50:52;7;7;
69350;PMS7003;57106;51.446;-2.606;2023-04-03T11:53:28;8;8;
69350;PMS7003;57106;51.446;-2.606;2023-04-03T11:58:13;9;7;
69350;PMS7003;57106;51.446;-2.606;2023-04-03T12:03:00;6;6;
69350;PMS7003;57106;51.446;-2.606;2023-04-03T12:05:26;9;7;
69350;PMS7003;57106;51.446;-2.606;2023-04-03T12:10:17;9;8;
69350;PMS7003;57106;51.446;-2.606;2023-04-03T12:12:43;8;7;
69350;PMS7003;57106;51.446;-2.606;2023-04-03T12:17:34;9;8;
69350;PMS7003;57106;51.446;-2.606;2023-04-03T12:19:59;6;6;
69350;PMS7003;57106;51.446;-2.606;2023-04-03T12:22:25;8;8;
69350;PMS7003;57106;51.446;-2.606;2023-04-03T12:24:51;8;7;
69350;PMS7003;57106;51.446;-2.606;2023-04-03T12:27:24;10;9;
69350;PMS7003;57106;51.446;-2.606;2023-04-03T12:29:43;10;8;
69350;PMS7003;57106;51.446;-2.606;2023-04-03T12:32:10;8;7;
69350;PMS7003;57106;51.446;-2.606;2023-04-03T12:34:38;8;8;
69350;PMS7003;57106;51.446;-2.606;2023-04-03T12:36:59;10;9;
69350;PMS7003;57106;51.446;-2.606;2023-04-03T12:41:52;9;7;
69350;PMS7003;57106;51.446;-2.606;2023-04-03T12:44:19;8;7;
69350;PMS7003;57106;51.446;-2.606;2023-04-03T12:46:42;9;8;
69350;PMS7003;57106;51.446;-2.606;2023-04-03T12:51:33;8;7;
69350;PMS7003;57106;51.446;-2.606;2023-04-03T12:54:00;11;9;
69350;PMS7003;57106;51.446;-2.606;2023-04-03T12:56:24;7;7;
69350;PMS7003;57106;51.446;-2.606;2023-04-03T12:58:49;8;8;
69350;PMS7003;57106;51.446;-2.606;2023-04-03T13:01:15;9;8;
69350;PMS7003;57106;51.446;-2.606;2023-04-03T13:03:40;8;8;
69350;PMS7003;57106;51.446;-2.606;2023-04-03T13:06:05;9;8;
69350;PMS7003;57106;51.446;-2.606;2023-04-03T13:08:31;7;7;
69350;PMS7003;57106;51.446;-2.606;2023-04-03T13:10:58;7;7;
69350;PMS7003;57106;51.446;-2.606;2023-04-03T13:13:22;9;7;
69350;PMS7003;57106;51.446;-2.606;2023-04-03T13:15:48;11;9;
69350;PMS7003;57106;51.446;-2.606;2023-04-03T13:18:23;11;9;
69350;PMS7003;57106;51.446;-2.606;2023-04-03T13:20:39;8;8;
69350;PMS7003;57106;51.446;-2.606;2023-04-03T13:23:10;13;9;
69350;PMS7003;57106;51.446;-2.606;2023-04-03T13:25:30;10;10;
69350;PMS7003;57106;51.446;-2.606;2023-04-03T13:27:55;11;10;
69350;PMS7003;57106;51.446;-2.606;2023-04-03T13:30:23;8;8;
69350;PMS7003;57106;51.446;-2.606;2023-04-03T13:32:46;9;8;
69350;PMS7003;57106;51.446;-2.606;2023-04-03T13:37:37;7;7;
69350;PMS7003;57106;51.446;-2.606;2023-04-03T13:40:08;10;10;
69350;PMS7003;57106;51.446;-2.606;2023-04-03T13:42:29;9;9;
69350;PMS7003;57106;51.446;-2.606;2023-04-03T13:47:20;9;9;
69350;PMS7003;57106;51.446;-2.606;2023-04-03T13:49:46;12;11;
69350;PMS7003;57106;51.446;-2.606;2023-04-03T13:54:38;12;9;
69350;PMS7003;57106;51.446;-2.606;2023-04-03T13:57:03;10;10;
69350;PMS7003;57106;51.446;-2.606;2023-04-03T13:59:28;10;9;
69350;PMS7003;57106;51.446;-2.606;2023-04-03T14:01:53;12;9;
69350;PMS7003;57106;51.446;-2.606;2023-04-03T14:04:19;12;11;
69350;PMS7003;57106;51.446;-2.606;2023-04-03T14:06:44;9;8;
69350;PMS7003;57106;51.446;-2.606;2023-04-03T14:09:10;9;9;
69350;PMS7003;57106;51.446;-2.606;2023-04-03T14:11:35;11;11;
69350;PMS7003;57106;51.446;-2.606;2023-04-03T14:14:02;11;11;
69350;PMS7003;57106;51.446;-2.606;2023-04-03T14:16:27;13;13;
69350;PMS7003;57106;51.446;-2.606;2023-04-03T14:18:52;9;9;
69350;PMS7003;57106;51.446;-2.606;2023-04-03T14:21:22;11;11;
69350;PMS7003;57106;51.446;-2.606;2023-04-03T14:23:43;13;13;
69350;PMS7003;57106;51.446;-2.606;2023-04-03T14:26:10;14;13;
69350;PMS7003;57106;51.446;-2.606;2023-04-03T14:28:34;11;11;
69350;PMS7003;57106;51.446;-2.606;2023-04-03T14:30:59;18;14;
69350;PMS7003;57106;51.446;-2.606;2023-04-03T14:33:24;14;11;
69350;PMS7003;57106;51.446;-2.606;2023-04-03T14:35:50;13;13;
69350;PMS7003;57106;51.446;-2.606;2023-04-03T14:38:21;13;12;
69350;PMS7003;57106;51.446;-2.606;2023-04-03T14:40:41;10;10;
69350;PMS7003;57106;51.446;-2.606;2023-04-03T14:43:08;13;12;
69350;PMS7003;57106;51.446;-2.606;2023-04-03T14:45:31;15;13;
69350;PMS7003;57106;51.446;-2.606;2023-04-03T14:47:57;12;11;
69350;PMS7003;57106;51.446;-2.606;2023-04-03T14:50:23;11;9;
69350;PMS7003;57106;51.446;-2.606;2023-04-03T14:52:48;11;11;
69350;PMS7003;57106;51.446;-2.606;2023-04-03T14:55:14;18;13;
69350;PMS7003;57106;51.446;-2.606;2023-04-03T14:57:39;11;11;
69350;PMS7003;57106;51.446;-2.606;2023-04-03T15:00:06;14;14;
69350;PMS7003;57106;51.446;-2.606;2023-04-03T15:02:31;10;10;
69350;PMS7003;57106;51.446;-2.606;2023-04-03T15:04:56;13;13;
69350;PMS7003;57106;51.446;-2.606;2023-04-03T15:07:21;12;12;
69350;PMS7003;57106;51.446;-2.606;2023-04-03T15:09:47;12;12;
69350;PMS7003;57106;51.446;-2.606;2023-04-03T15:12:12;12;11;
69350;PMS7003;57106;51.446;-2.606;2023-04-03T15:14:38;12;12;
69350;PMS7003;57106;51.446;-2.606;2023-04-03T15:17:03;12;11;
69350;PMS7003;57106;51.446;-2.606;2023-04-03T15:19:28;12;12;
69350;PMS7003;57106;51.446;-2.606;2023-04-03T15:21:54;15;13;
69350;PMS7003;57106;51.446;-2.606;2023-04-03T15:24:19;14;13;
69350;PMS7003;57106;51.446;-2.606;2023-04-03T15:26:45;9;9;
69350;PMS7003;57106;51.446;-2.606;2023-04-03T15:29:10;10;10;
69350;PMS7003;57106;51.446;-2.606;2023-04-03T15:31:36;14;12;
69350;PMS7003;57106;51.446;-2.606;2023-04-03T15:34:01;11;11;
69350;PMS7003;57106;51.446;-2.606;2023-04-03T15:36:28;12;11;
69350;PMS7003;57106;51.446;-2.606;2023-04-03T15:38:52;14;14;
69350;PMS7003;57106;51.446;-2.606;2023-04-03T15:41:17;8;8;
69350;PMS7003;57106;51.446;-2.606;2023-04-03T15:43:43;13;12;
69350;PMS7003;57106;51.446;-2.606;2023-04-03T15:46:08;12;11;
69350;PMS7003;57106;51.446;-2.606;2023-04-03T15:48:33;15;15;
69350;PMS7003;57106;51.446;-2.606;2023-04-03T15:50:59;12;12;
69350;PMS7003;57106;51.446;-2.606;2023-04-03T15:53:24;17;14;
69350;PMS7003;57106;51.446;-2.606;2023-04-03T15:55:50;13;13;
69350;PMS7003;57106;51.446;-2.606;2023-04-03T15:58:16;12;11;
69350;PMS7003;57106;51.446;-2.606;2023-04-03T16:00:41;13;12;
69350;PMS7003;57106;51.446;-2.606;2023-04-03T16:03:08;11;10;
69350;PMS7003;57106;51.446;-2.606;2023-04-03T16:05:32;11;10;
69350;PMS7003;57106;51.446;-2.606;2023-04-03T16:07:58;9;8;
69350;PMS7003;57106;51.446;-2.606;2023-04-03T16:10:23;12;10;
69350;PMS7003;57106;51.446;-2.606;2023-04-03T16:12:49;11;11;
69350;PMS7003;57106;51.446;-2.606;2023-04-03T16:15:14;11;11;
69350;PMS7003;57106;51.446;-2.606;2023-04-03T16:17:40;10;9;
69350;PMS7003;57106;51.446;-2.606;2023-04-03T16:20:05;11;11;
69350;PMS7003;57106;51.446;-2.606;2023-04-03T16:22:30;12;11;
69350;PMS7003;57106;51.446;-2.606;2023-04-03T16:24:56;11;11;
69350;PMS7003;57106;51.446;-2.606;2023-04-03T16:27:22;9;9;
69350;PMS7003;57106;51.446;-2.606;2023-04-03T16:29:47;11;11;
69350;PMS7003;57106;51.446;-2.606;2023-04-03T16:32:13;12;12;
69350;PMS7003;57106;51.446;-2.606;2023-04-03T16:34:39;13;13;
69350;PMS7003;57106;51.446;-2.606;2023-04-03T16:37:04;13;11;
69350;PMS7003;57106;51.446;-2.606;2023-04-03T16:39:29;15;13;
69350;PMS7003;57106;51.446;-2.606;2023-04-03T16:41:55;13;11;
69350;PMS7003;57106;51.446;-2.606;2023-04-03T16:44:21;13;11;
69350;PMS7003;57106;51.446;-2.606;2023-04-03T16:46:46;14;12;
69350;PMS7003;57106;51.446;-2.606;2023-04-03T16:49:11;11;11;
69350;PMS7003;57106;51.446;-2.606;2023-04-03T16:51:37;11;11;
69350;PMS7003;57106;51.446;-2.606;2023-04-03T16:54:02;11;10;
69350;PMS7003;57106;51.446;-2.606;2023-04-03T16:56:28;11;10;
69350;PMS7003;57106;51.446;-2.606;2023-04-03T16:58:54;12;11;
69350;PMS7003;57106;51.446;-2.606;2023-04-03T17:01:20;12;12;
69350;PMS7003;57106;51.446;-2.606;2023-04-03T17:03:45;18;14;
69350;PMS7003;57106;51.446;-2.606;2023-04-03T17:06:11;11;11;
69350;PMS7003;57106;51.446;-2.606;2023-04-03T17:08:36;14;14;
69350;PMS7003;57106;51.446;-2.606;2023-04-03T17:11:01;15;14;
69350;PMS7003;57106;51.446;-2.606;2023-04-03T17:13:27;19;17;
69350;PMS7003;57106;51.446;-2.606;2023-04-03T17:15:53;11;11;
69350;PMS7003;57106;51.446;-2.606;2023-04-03T17:18:18;17;14;
69350;PMS7003;57106;51.446;-2.606;2023-04-03T17:20:43;13;13;
69350;PMS7003;57106;51.446;-2.606;2023-04-03T17:23:09;14;14;
69350;PMS7003;57106;51.446;-2.606;2023-04-03T17:25:34;14;12;
69350;PMS7003;57106;51.446;-2.606;2023-04-03T17:28:00;14;13;
69350;PMS7003;57106;51.446;-2.606;2023-04-03T17:30:25;13;13;
69350;PMS7003;57106;51.446;-2.606;2023-04-03T17:32:50;10;10;
69350;PMS7003;57106;51.446;-2.606;2023-04-03T17:35:16;11;11;
69350;PMS7003;57106;51.446;-2.606;2023-04-03T17:37:42;12;12;
69350;PMS7003;57106;51.446;-2.606;2023-04-03T17:40:07;13;13;
69350;PMS7003;57106;51.446;-2.606;2023-04-03T17:42:32;11;10;
69350;PMS7003;57106;51.446;-2.606;2023-04-03T17:44:58;11;10;
69350;PMS7003;57106;51.446;-2.606;2023-04-03T17:47:24;12;11;
69350;PMS7003;57106;51.446;-2.606;2023-04-03T17:49:49;14;12;
69350;PMS7003;57106;51.446;-2.606;2023-04-03T17:52:14;12;11;
69350;PMS7003;57106;51.446;-2.606;2023-04-03T17:54:45;12;10;
69350;PMS7003;57106;51.446;-2.606;2023-04-03T17:57:06;12;12;
69350;PMS7003;57106;51.446;-2.606;2023-04-03T17:59:36;10;10;
69350;PMS7003;57106;51.446;-2.606;2023-04-03T18:01:57;10;10;
69350;PMS7003;57106;51.446;-2.606;2023-04-03T18:04:22;15;12;
69350;PMS7003;57106;51.446;-2.606;2023-04-03T18:06:48;11;11;
69350;PMS7003;57106;51.446;-2.606;2023-04-03T18:09:17;12;11;
69350;PMS7003;57106;51.446;-2.606;2023-04-03T18:14:05;11;11;
69350;PMS7003;57106;51.446;-2.606;2023-04-03T18:16:30;12;12;
69350;PMS7003;57106;51.446;-2.606;2023-04-03T18:18:55;11;11;
69350;PMS7003;57106;51.446;-2.606;2023-04-03T18:21:21;13;10;
69350;PMS7003;57106;51.446;-2.606;2023-04-03T18:23:53;11;10;
69350;PMS7003;57106;51.446;-2.606;2023-04-03T18:26:12;13;12;
69350;PMS7003;57106;51.446;-2.606;2023-04-03T18:28:37;10;10;
69350;PMS7003;57106;51.446;-2.606;2023-04-03T18:31:03;10;10;
69350;PMS7003;57106;51.446;-2.606;2023-04-03T18:33:28;12;12;
69350;PMS7003;57106;51.446;-2.606;2023-04-03T18:35:54;9;9;
69350;PMS7003;57106;51.446;-2.606;2023-04-03T18:38:19;14;11;
69350;PMS7003;57106;51.446;-2.606;2023-04-03T18:40:45;12;12;
69350;PMS7003;57106;51.446;-2.606;2023-04-03T18:43:10;11;11;
69350;PMS7003;57106;51.446;-2.606;2023-04-03T18:45:35;16;13;
69350;PMS7003;57106;51.446;-2.606;2023-04-03T18:48:01;9;9;
69350;PMS7003;57106;51.446;-2.606;2023-04-03T18:50:26;10;10;
69350;PMS7003;57106;51.446;-2.606;2023-04-03T18:52:52;10;10;
69350;PMS7003;57106;51.446;-2.606;2023-04-03T18:55:18;11;9;
69350;PMS7003;57106;51.446;-2.606;2023-04-03T18:57:43;10;8;
69350;PMS7003;57106;51.446;-2.606;2023-04-03T19:00:09;18;17;
69350;PMS7003;57106;51.446;-2.606;2023-04-03T19:02:34;12;12;
69350;PMS7003;57106;51.446;-2.606;2023-04-03T19:05:00;10;10;
69350;PMS7003;57106;51.446;-2.606;2023-04-03T19:07:25;10;10;
69350;PMS7003;57106;51.446;-2.606;2023-04-03T19:09:51;12;11;
69350;PMS7003;57106;51.446;-2.606;2023-04-03T19:12:16;14;11;
69350;PMS7003;57106;51.446;-2.606;2023-04-03T19:14:42;12;12;
69350;PMS7003;57106;51.446;-2.606;2023-04-03T19:17:07;11;11;
69350;PMS7003;57106;51.446;-2.606;2023-04-03T19:19:33;12;11;
69350;PMS7003;57106;51.446;-2.606;2023-04-03T19:21:59;11;11;
69350;PMS7003;57106;51.446;-2.606;2023-04-03T19:24:24;14;12;
69350;PMS7003;57106;51.446;-2.606;2023-04-03T19:26:50;14;14;
69350;PMS7003;57106;51.446;-2.606;2023-04-03T19:29:15;10;10;
69350;PMS7003;57106;51.446;-2.606;2023-04-03T19:31:40;14;14;
69350;PMS7003;57106;51.446;-2.606;2023-04-03T19:34:06;13;13;
69350;PMS7003;57106;51.446;-2.606;2023-04-03T19:36:32;13;11;
69350;PMS7003;57106;51.446;-2.606;2023-04-03T19:39:02;13;12;
69350;PMS7003;57106;51.446;-2.606;2023-04-03T19:41:24;10;10;
69350;PMS7003;57106;51.446;-2.606;2023-04-03T19:43:48;14;11;
69350;PMS7003;57106;51.446;-2.606;2023-04-03T19:46:13;13;12;
69350;PMS7003;57106;51.446;-2.606;2023-04-03T19:48:39;11;11;
69350;PMS7003;57106;51.446;-2.606;2023-04-03T19:51:04;14;13;
69350;PMS7003;57106;51.446;-2.606;2023-04-03T19:53:29;13;12;
69350;PMS7003;57106;51.446;-2.606;2023-04-03T19:55:56;10;10;
69350;PMS7003;57106;51.446;-2.606;2023-04-03T19:58:21;13;13;
69350;PMS7003;57106;51.446;-2.606;2023-04-03T20:00:46;13;12;
69350;PMS7003;57106;51.446;-2.606;2023-04-03T20:03:12;14;12;
69350;PMS7003;57106;51.446;-2.606;2023-04-03T20:05:38;16;12;
69350;PMS7003;57106;51.446;-2.606;2023-04-03T20:08:03;16;14;
69350;PMS7003;57106;51.446;-2.606;2023-04-03T20:10:29;15;14;
69350;PMS7003;57106;51.446;-2.606;2023-04-03T20:12:54;14;13;
69350;PMS7003;57106;51.446;-2.606;2023-04-03T20:15:19;16;15;
69350;PMS7003;57106;51.446;-2.606;2023-04-03T20:17:45;12;12;
69350;PMS7003;57106;51.446;-2.606;2023-04-03T20:20:11;17;14;
69350;PMS7003;57106;51.446;-2.606;2023-04-03T20:22:37;11;11;
69350;PMS7003;57106;51.446;-2.606;2023-04-03T20:25:04;16;14;
69350;PMS7003;57106;51.446;-2.606;2023-04-03T20:27:27;13;12;
69350;PMS7003;57106;51.446;-2.606;2023-04-03T20:29:53;13;13;
69350;PMS7003;57106;51.446;-2.606;2023-04-03T20:32:18;16;15;
69350;PMS7003;57106;51.446;-2.606;2023-04-03T20:34:44;12;12;
69350;PMS7003;57106;51.446;-2.606;2023-04-03T20:37:10;13;10;
69350;PMS7003;57106;51.446;-2.606;2023-04-03T20:39:35;11;11;
69350;PMS7003;57106;51.446;-2.606;2023-04-03T20:42:01;14;12;
69350;PMS7003;57106;51.446;-2.606;2023-04-03T20:44:26;11;9;
69350;PMS7003;57106;51.446;-2.606;2023-04-03T20:46:52;11;11;
69350;PMS7003;57106;51.446;-2.606;2023-04-03T20:49:18;10;9;
69350;PMS7003;57106;51.446;-2.606;2023-04-03T20:51:43;12;10;
69350;PMS7003;57106;51.446;-2.606;2023-04-03T20:54:09;9;8;
69350;PMS7003;57106;51.446;-2.606;2023-04-03T20:56:34;10;10;
69350;PMS7003;57106;51.446;-2.606;2023-04-03T20:59:00;11;10;
69350;PMS7003;57106;51.446;-2.606;2023-04-03T21:01:25;11;11;
69350;PMS7003;57106;51.446;-2.606;2023-04-03T21:03:53;9;9;
69350;PMS7003;57106;51.446;-2.606;2023-04-03T21:20:52;11;11;
69350;PMS7003;57106;51.446;-2.606;2023-04-03T21:23:16;12;11;
69350;PMS7003;57106;51.446;-2.606;2023-04-03T21:25:41;8;8;
69350;PMS7003;57106;51.446;-2.606;2023-04-03T21:28:07;11;10;
69350;PMS7003;57106;51.446;-2.606;2023-04-03T21:30:33;11;9;
69350;PMS7003;57106;51.446;-2.606;2023-04-03T21:32:58;10;10;
69350;PMS7003;57106;51.446;-2.606;2023-04-03T21:35:23;10;8;
69350;PMS7003;57106;51.446;-2.606;2023-04-03T21:37:49;8;8;
69350;PMS7003;57106;51.446;-2.606;2023-04-03T21:40:15;6;6;
69350;PMS7003;57106;51.446;-2.606;2023-04-03T21:42:40;8;8;
69350;PMS7003;57106;51.446;-2.606;2023-04-03T21:45:06;9;8;
69350;PMS7003;57106;51.446;-2.606;2023-04-03T21:47:32;8;8;
69350;PMS7003;57106;51.446;-2.606;2023-04-03T21:49:57;7;7;
69350;PMS7003;57106;51.446;-2.606;2023-04-03T21:52:23;9;9;
69350;PMS7003;57106;51.446;-2.606;2023-04-03T21:54:48;9;9;
69350;PMS7003;57106;51.446;-2.606;2023-04-03T21:57:14;7;7;
69350;PMS7003;57106;51.446;-2.606;2023-04-03T21:59:40;11;8;
69350;PMS7003;57106;51.446;-2.606;2023-04-03T22:02:05;7;7;
69350;PMS7003;57106;51.446;-2.606;2023-04-03T22:04:31;11;8;
69350;PMS7003;57106;51.446;-2.606;2023-04-03T22:06:57;10;9;
69350;PMS7003;57106;51.446;-2.606;2023-04-03T22:09:22;13;10;
69350;PMS7003;57106;51.446;-2.606;2023-04-03T22:11:48;15;10;
69350;PMS7003;57106;51.446;-2.606;2023-04-03T22:14:14;15;11;
69350;PMS7003;57106;51.446;-2.606;2023-04-03T22:16:39;9;7;
69350;PMS7003;57106;51.446;-2.606;2023-04-03T22:19:05;6;6;
69350;PMS7003;57106;51.446;-2.606;2023-04-03T22:21:31;10;9;
69350;PMS7003;57106;51.446;-2.606;2023-04-03T22:23:57;8;7;
69350;PMS7003;57106;51.446;-2.606;2023-04-03T22:26:22;7;7;
69350;PMS7003;57106;51.446;-2.606;2023-04-03T22:28:48;8;7;
69350;PMS7003;57106;51.446;-2.606;2023-04-03T22:31:14;7;7;
69350;PMS7003;57106;51.446;-2.606;2023-04-03T22:33:40;8;6;
69350;PMS7003;57106;51.446;-2.606;2023-04-03T22:36:06;9;7;
69350;PMS7003;57106;51.446;-2.606;2023-04-03T22:38:31;7;6;
69350;PMS7003;57106;51.446;-2.606;2023-04-03T22:40:57;8;8;
69350;PMS7003;57106;51.446;-2.606;2023-04-03T22:43:23;6;6;
69350;PMS7003;57106;51.446;-2.606;2023-04-03T22:45:48;7;6;
69350;PMS7003;57106;51.446;-2.606;2023-04-03T22:48:13;6;6;
69350;PMS7003;57106;51.446;-2.606;2023-04-03T22:50:39;5;5;
69350;PMS7003;57106;51.446;-2.606;2023-04-03T22:53:05;6;6;
69350;PMS7003;57106;51.446;-2.606;2023-04-03T22:55:30;6;5;
69350;PMS7003;57106;51.446;-2.606;2023-04-03T22:57:56;5;5;
69350;PMS7003;57106;51.446;-2.606;2023-04-03T23:00:22;6;5;
69350;PMS7003;57106;51.446;-2.606;2023-04-03T23:02:48;7;6;
69350;PMS7003;57106;51.446;-2.606;2023-04-03T23:05:13;4;4;
69350;PMS7003;57106;51.446;-2.606;2023-04-03T23:07:39;4;4;
69350;PMS7003;57106;51.446;-2.606;2023-04-03T23:12:35;4;4;
69350;PMS7003;57106;51.446;-2.606;2023-04-03T23:14:56;5;5;
69350;PMS7003;57106;51.446;-2.606;2023-04-03T23:17:22;5;3;
69350;PMS7003;57106;51.446;-2.606;2023-04-03T23:19:47;5;4;
69350;PMS7003;57106;51.446;-2.606;2023-04-03T23:22:13;4;4;
69350;PMS7003;57106;51.446;-2.606;2023-04-03T23:24:39;5;4;
69350;PMS7003;57106;51.446;-2.606;2023-04-03T23:27:05;3;3;
69350;PMS7003;57106;51.446;-2.606;2023-04-03T23:29:30;5;5;
69350;PMS7003;57106;51.446;-2.606;2023-04-03T23:31:56;5;4;
69350;PMS7003;57106;51.446;-2.606;2023-04-03T23:34:22;4;4;
69350;PMS7003;57106;51.446;-2.606;2023-04-03T23:36:47;6;5;
69350;PMS7003;57106;51.446;-2.606;2023-04-03T23:39:13;3;2;
69350;PMS7003;57106;51.446;-2.606;2023-04-03T23:41:39;5;4;
69350;PMS7003;57106;51.446;-2.606;2023-04-03T23:44:05;4;4;
69350;PMS7003;57106;51.446;-2.606;2023-04-03T23:46:30;5;3;
69350;PMS7003;57106;51.446;-2.606;2023-04-03T23:48:57;4;4;
69350;PMS7003;57106;51.446;-2.606;2023-04-03T23:51:22;2;2;
69350;PMS7003;57106;51.446;-2.606;2023-04-03T23:53:47;3;3;
69350;PMS7003;57106;51.446;-2.606;2023-04-03T23:56:13;3;3;
69350;PMS7003;57106;51.446;-2.606;2023-04-03T23:58:39;3;3;
